Time;durP1;ratioP1;P1;durP2;ratioP2;P2;SDS_P1;SDS_P2;PMS_P1;PMS_P2;Temp;Humidity;BMP_temperature;BMP_pressure;BME280_temperature;BME280_humidity;BME280_pressure;Samples;Min_cycle;Max_cycle;Signal;HPM_P1;HPM_P2
2024/03/31 00:02:20;;;;;;;7.97;6.87;;;9.90;99.90;;;;;;5014016;28;20174;-84
2024/03/31 00:04:50;;;;;;;8.57;7.20;;;10.00;99.90;;;;;;5013022;28;20222;-84
2024/03/31 00:07:16;;;;;;;7.50;6.70;;;9.90;99.90;;;;;;5014788;28;20177;-85
2024/03/31 00:09:46;;;;;;;7.30;6.60;;;9.80;99.90;;;;;;5012991;28;20210;-85
2024/03/31 00:12:12;;;;;;;9.37;7.07;;;9.80;99.90;;;;;;5013077;28;20194;-84
2024/03/31 00:14:38;;;;;;;7.87;7.07;;;9.80;99.90;;;;;;5031855;28;20165;-84
2024/03/31 00:17:05;;;;;;;8.67;7.77;;;9.80;99.90;;;;;;5035005;28;20209;-84
2024/03/31 00:19:30;;;;;;;8.17;7.37;;;9.90;99.90;;;;;;5024827;28;20178;-85
2024/03/31 00:21:56;;;;;;;10.03;7.77;;;9.90;99.90;;;;;;5015750;28;20623;-85
2024/03/31 00:24:22;;;;;;;10.47;7.53;;;10.00;99.90;;;;;;5014995;28;20170;-86
2024/03/31 00:26:47;;;;;;;9.50;8.50;;;10.00;99.90;;;;;;5014010;28;20171;-84
2024/03/31 00:29:13;;;;;;;9.30;8.37;;;9.90;99.90;;;;;;5013300;28;20233;-84
2024/03/31 00:31:39;;;;;;;9.13;8.17;;;9.90;99.90;;;;;;5013795;28;20617;-85
2024/03/31 00:34:04;;;;;;;10.57;8.50;;;9.80;99.90;;;;;;5046783;28;20253;-85
2024/03/31 00:36:30;;;;;;;9.80;8.77;;;9.80;99.90;;;;;;5013196;28;20216;-84
2024/03/31 00:38:56;;;;;;;9.20;8.00;;;9.70;99.90;;;;;;5013897;28;20182;-84
2024/03/31 00:41:21;;;;;;;10.20;9.10;;;9.80;99.90;;;;;;5013611;28;20259;-84
2024/03/31 00:43:47;;;;;;;10.47;9.20;;;9.80;99.90;;;;;;5014112;28;20589;-84
2024/03/31 00:46:13;;;;;;;11.03;9.60;;;9.80;99.90;;;;;;5014310;28;20684;-85
2024/03/31 00:48:38;;;;;;;12.10;9.40;;;9.90;99.90;;;;;;5014503;28;20198;-87
2024/03/31 00:51:04;;;;;;;10.10;9.07;;;10.00;99.90;;;;;;5013970;28;20182;-85
2024/03/31 00:53:30;;;;;;;11.93;9.50;;;9.90;99.90;;;;;;5013166;28;20658;-85
2024/03/31 00:55:55;;;;;;;12.07;9.67;;;9.90;99.90;;;;;;5013781;28;20634;-86
2024/03/31 00:58:21;;;;;;;9.90;8.90;;;9.80;99.90;;;;;;5013231;28;20702;-85
2024/03/31 01:00:47;;;;;;;10.20;9.20;;;9.80;99.90;;;;;;5014181;28;20176;-85
2024/03/31 01:03:12;;;;;;;10.47;9.40;;;9.80;99.90;;;;;;5013545;28;20186;-84
2024/03/31 01:05:38;;;;;;;10.40;9.30;;;9.80;99.90;;;;;;5013423;28;20178;-84
2024/03/31 01:08:04;;;;;;;11.30;9.50;;;9.80;99.90;;;;;;5013877;28;20232;-85
2024/03/31 01:10:30;;;;;;;10.60;9.50;;;9.80;99.90;;;;;;5013543;28;20178;-84
2024/03/31 01:12:56;;;;;;;10.90;9.80;;;9.80;99.90;;;;;;5013040;28;20562;-84
2024/03/31 01:15:21;;;;;;;10.47;9.43;;;9.80;99.90;;;;;;5016771;28;20174;-85
2024/03/31 01:17:47;;;;;;;11.47;10.33;;;9.80;99.90;;;;;;5017417;28;20232;-84
2024/03/31 01:20:13;;;;;;;11.77;10.57;;;9.80;99.90;;;;;;5016837;28;20769;-85
2024/03/31 01:22:41;;;;;;;11.00;9.90;;;9.90;99.90;;;;;;5016844;28;20220;-85
2024/03/31 01:25:07;;;;;;;10.63;9.53;;;9.90;99.90;;;;;;5016421;28;20185;-84
2024/03/31 01:27:32;;;;;;;11.00;9.83;;;9.90;99.90;;;;;;5017009;28;20201;-84
2024/03/31 01:29:58;;;;;;;12.13;10.20;;;9.80;99.90;;;;;;5017241;28;20214;-85
2024/03/31 01:32:24;;;;;;;12.33;10.27;;;9.80;99.90;;;;;;5017807;28;20167;-85
2024/03/31 01:34:49;;;;;;;11.70;10.23;;;9.80;99.90;;;;;;5016064;28;20587;-84
2024/03/31 01:37:15;;;;;;;12.37;10.77;;;9.70;99.90;;;;;;5016575;28;20714;-85
2024/03/31 01:39:42;;;;;;;13.20;11.03;;;9.70;99.90;;;;;;5016281;28;20201;-84
2024/03/31 01:42:07;;;;;;;12.77;11.20;;;9.60;99.90;;;;;;5015668;28;20312;-84
2024/03/31 01:44:33;;;;;;;12.97;11.57;;;9.50;99.90;;;;;;5015517;28;20642;-84
2024/03/31 01:46:58;;;;;;;13.97;11.77;;;9.60;99.90;;;;;;5015189;28;20709;-85
2024/03/31 01:49:24;;;;;;;16.00;12.87;;;9.50;99.90;;;;;;5016728;28;20301;-83
2024/03/31 01:51:50;;;;;;;13.87;11.73;;;9.50;99.90;;;;;;5017162;28;20193;-84
2024/03/31 01:54:16;;;;;;;16.17;12.17;;;9.50;99.90;;;;;;5016822;28;20237;-85
2024/03/31 01:56:42;;;;;;;13.27;11.47;;;9.50;99.90;;;;;;5015632;28;20177;-84
2024/03/31 01:59:07;;;;;;;13.30;11.30;;;9.50;99.90;;;;;;5017631;28;20177;-84
2024/03/31 02:01:33;;;;;;;13.33;11.53;;;9.50;99.90;;;;;;5015873;28;20179;-84
2024/03/31 02:03:58;;;;;;;12.50;11.20;;;9.50;99.90;;;;;;5015700;28;20556;-83
2024/03/31 02:06:24;;;;;;;13.77;11.63;;;9.50;99.90;;;;;;5016343;28;20662;-85
2024/03/31 02:08:50;;;;;;;12.90;11.60;;;9.50;99.90;;;;;;5016071;28;20671;-85
2024/03/31 02:11:15;;;;;;;13.10;11.70;;;9.50;99.90;;;;;;5015591;28;20190;-84
2024/03/31 02:13:41;;;;;;;14.10;11.80;;;9.50;99.90;;;;;;5016110;28;20659;-84
2024/03/31 02:16:07;;;;;;;13.40;11.67;;;9.50;99.90;;;;;;5015619;28;20646;-82
2024/03/31 02:18:32;;;;;;;13.77;11.83;;;9.60;99.90;;;;;;5015424;28;20708;-84
2024/03/31 02:20:58;;;;;;;13.77;11.50;;;9.60;99.90;;;;;;5015194;28;20174;-85
2024/03/31 02:23:24;;;;;;;13.17;11.07;;;9.70;99.90;;;;;;5015400;28;20654;-85
2024/03/31 02:25:50;;;;;;;14.17;11.17;;;9.70;99.90;;;;;;5014752;28;20178;-84
2024/03/31 02:28:15;;;;;;;13.83;11.10;;;9.70;99.90;;;;;;5016265;28;20166;-85
2024/03/31 02:30:41;;;;;;;13.77;11.03;;;9.60;99.90;;;;;;5015554;28;20187;-85
2024/03/31 02:33:07;;;;;;;14.17;12.23;;;9.70;99.90;;;;;;5015568;28;20174;-83
2024/03/31 02:35:33;;;;;;;12.63;11.27;;;9.70;99.90;;;;;;5015815;28;20213;-84
2024/03/31 02:37:58;;;;;;;12.40;11.10;;;9.70;99.90;;;;;;5015078;28;20178;-85
2024/03/31 02:40:24;;;;;;;12.53;10.47;;;9.70;99.90;;;;;;5015382;28;20519;-85
2024/03/31 02:42:50;;;;;;;12.03;10.50;;;9.70;99.90;;;;;;5016989;28;20186;-84
2024/03/31 02:45:15;;;;;;;14.77;11.33;;;9.60;99.90;;;;;;5015290;28;20166;-84
2024/03/31 02:47:41;;;;;;;12.30;11.00;;;9.60;99.90;;;;;;5015626;28;20183;-84
2024/03/31 02:50:07;;;;;;;12.50;11.13;;;9.60;99.90;;;;;;5015389;28;20277;-85
2024/03/31 02:52:34;;;;;;;12.60;11.00;;;9.50;99.90;;;;;;5014842;28;20174;-85
2024/03/31 02:54:59;;;;;;;13.27;11.37;;;9.50;99.90;;;;;;5015350;28;20537;-85
2024/03/31 02:57:25;;;;;;;13.67;11.50;;;9.60;99.90;;;;;;5016918;28;20171;-86
2024/03/31 02:59:50;;;;;;;13.47;11.33;;;9.60;99.90;;;;;;5014898;28;20608;-84
2024/03/31 03:02:16;;;;;;;14.33;12.50;;;9.50;99.90;;;;;;5014932;28;20257;-84
2024/03/31 03:04:42;;;;;;;14.30;11.80;;;9.60;99.90;;;;;;5015181;28;20197;-83
2024/03/31 03:07:07;;;;;;;12.33;10.30;;;9.60;99.90;;;;;;5015187;28;20186;-86
2024/03/31 03:09:33;;;;;;;13.03;11.33;;;9.70;99.90;;;;;;5015994;28;20214;-85
2024/03/31 03:11:59;;;;;;;11.27;10.07;;;9.70;99.90;;;;;;5017342;28;20186;-84
2024/03/31 03:14:24;;;;;;;10.80;9.63;;;9.70;99.90;;;;;;5014095;28;20539;-84
2024/03/31 03:16:50;;;;;;;9.80;8.80;;;9.70;99.90;;;;;;5014993;28;20171;-83
2024/03/31 03:19:16;;;;;;;10.07;8.50;;;9.60;99.90;;;;;;5023457;28;20185;-83
2024/03/31 03:21:42;;;;;;;10.13;9.03;;;9.60;99.90;;;;;;5033605;28;20171;-84
2024/03/31 03:24:08;;;;;;;9.93;8.53;;;9.70;99.90;;;;;;5031912;28;20170;-84
2024/03/31 03:26:34;;;;;;;9.70;8.70;;;9.70;99.90;;;;;;5030521;28;20186;-83
2024/03/31 03:29:02;;;;;;;10.60;8.67;;;9.70;99.90;;;;;;5016672;28;20562;-84
2024/03/31 03:31:29;;;;;;;10.30;8.73;;;9.70;99.90;;;;;;5014089;28;20174;-83
2024/03/31 03:33:56;;;;;;;10.43;9.07;;;9.80;99.90;;;;;;5013315;28;20658;-84
2024/03/31 03:36:22;;;;;;;10.07;8.83;;;9.80;99.90;;;;;;5012819;28;20189;-84
2024/03/31 03:38:48;;;;;;;10.80;9.23;;;9.80;99.90;;;;;;5013379;28;20572;-85
2024/03/31 03:41:14;;;;;;;10.73;8.90;;;9.80;99.90;;;;;;5014204;28;20170;-84
2024/03/31 03:43:39;;;;;;;10.70;9.07;;;9.80;99.90;;;;;;5014098;28;20178;-84
2024/03/31 03:46:05;;;;;;;11.03;9.23;;;9.90;99.90;;;;;;5014554;28;20182;-83
2024/03/31 03:48:31;;;;;;;11.47;9.37;;;9.90;99.90;;;;;;5014241;28;20210;-85
2024/03/31 03:51:01;;;;;;;10.93;9.27;;;9.80;99.90;;;;;;5015618;28;20614;-85
2024/03/31 03:53:27;;;;;;;11.50;9.27;;;9.80;99.90;;;;;;5014085;28;20553;-83
2024/03/31 03:55:53;;;;;;;11.17;9.20;;;9.80;99.90;;;;;;5013986;28;20277;-84
2024/03/31 03:58:18;;;;;;;9.97;8.97;;;9.70;99.90;;;;;;5013592;28;20174;-84
2024/03/31 04:00:44;;;;;;;10.97;9.17;;;9.70;99.90;;;;;;5014031;28;20194;-85
2024/03/31 04:03:10;;;;;;;10.40;8.67;;;9.70;99.90;;;;;;5014075;28;20651;-84
2024/03/31 04:05:35;;;;;;;11.27;9.87;;;9.70;99.90;;;;;;5013992;28;20272;-84
2024/03/31 04:08:02;;;;;;;10.10;9.00;;;9.70;99.90;;;;;;5013931;28;20189;-84
2024/03/31 04:10:29;;;;;;;11.23;9.00;;;9.70;99.90;;;;;;5014612;28;20300;-83
2024/03/31 04:12:55;;;;;;;11.37;9.23;;;9.80;99.90;;;;;;5014675;28;20198;-84
2024/03/31 04:15:21;;;;;;;11.73;10.30;;;9.80;99.90;;;;;;5015009;28;20623;-84
2024/03/31 04:17:46;;;;;;;14.43;9.37;;;9.80;99.90;;;;;;5013873;28;20174;-83
2024/03/31 04:20:12;;;;;;;10.57;9.47;;;9.90;99.90;;;;;;5014755;28;20193;-84
2024/03/31 04:22:38;;;;;;;10.37;9.07;;;10.00;99.90;;;;;;5014316;28;20185;-84
2024/03/31 04:25:04;;;;;;;12.67;9.27;;;10.10;99.90;;;;;;5015161;28;20539;-84
2024/03/31 04:27:29;;;;;;;8.70;7.80;;;10.30;99.90;;;;;;5014274;28;20646;-84
2024/03/31 04:29:55;;;;;;;11.00;8.47;;;10.30;99.90;;;;;;5014520;28;20221;-83
2024/03/31 04:32:21;;;;;;;9.13;8.23;;;10.20;99.90;;;;;;5016476;28;20650;-85
2024/03/31 04:34:46;;;;;;;10.20;8.30;;;10.20;99.90;;;;;;5013963;28;20185;-85
2024/03/31 04:37:12;;;;;;;8.93;8.03;;;10.30;99.90;;;;;;5013643;28;20634;-84
2024/03/31 04:39:38;;;;;;;9.60;8.07;;;10.20;99.90;;;;;;5014353;28;20611;-84
2024/03/31 04:42:04;;;;;;;8.97;8.07;;;10.20;99.90;;;;;;5013571;28;20614;-84
2024/03/31 04:44:29;;;;;;;10.90;7.70;;;10.10;99.90;;;;;;5013904;28;20611;-84
2024/03/31 04:46:55;;;;;;;8.50;7.57;;;10.10;99.90;;;;;;5014388;28;20209;-84
2024/03/31 04:49:21;;;;;;;10.90;7.93;;;10.10;99.90;;;;;;5017609;28;20242;-84
2024/03/31 04:51:50;;;;;;;10.83;7.63;;;10.20;99.90;;;;;;5019088;28;20162;-84
2024/03/31 04:54:16;;;;;;;9.70;7.30;;;10.30;99.90;;;;;;5019424;28;20571;-85
2024/03/31 04:56:42;;;;;;;9.20;7.20;;;10.30;99.90;;;;;;5019406;28;20300;-83
2024/03/31 04:59:08;;;;;;;7.60;6.57;;;10.40;99.90;;;;;;5017363;28;20216;-84
2024/03/31 05:01:33;;;;;;;11.00;8.27;;;10.40;99.90;;;;;;5018235;28;20240;-84
2024/03/31 05:03:59;;;;;;;9.20;6.60;;;10.50;99.90;;;;;;5018594;28;20190;-84
2024/03/31 05:06:25;;;;;;;9.90;7.53;;;10.50;99.90;;;;;;5017317;28;20180;-84
2024/03/31 05:08:51;;;;;;;11.80;7.50;;;10.40;99.90;;;;;;5017844;28;20576;-84
2024/03/31 05:11:16;;;;;;;8.87;6.60;;;10.40;99.90;;;;;;5017984;28;20226;-83
2024/03/31 05:13:42;;;;;;;8.77;6.80;;;10.40;99.90;;;;;;5016982;28;20631;-84
2024/03/31 05:16:09;;;;;;;9.23;6.90;;;10.30;99.90;;;;;;5017667;28;20767;-85
2024/03/31 05:18:35;;;;;;;7.23;5.83;;;10.30;99.90;;;;;;5016750;28;20178;-83
2024/03/31 05:21:03;;;;;;;9.67;6.87;;;10.20;99.90;;;;;;5017110;28;20612;-83
2024/03/31 05:23:29;;;;;;;11.07;6.73;;;10.20;99.90;;;;;;5018455;28;20262;-83
2024/03/31 05:25:56;;;;;;;9.40;7.03;;;10.30;99.90;;;;;;5017800;28;20177;-84
2024/03/31 05:28:22;;;;;;;13.03;7.23;;;10.30;99.90;;;;;;5016866;28;20316;-84
2024/03/31 05:30:48;;;;;;;11.10;6.63;;;10.30;99.90;;;;;;5017070;28;20177;-85
2024/03/31 05:33:16;;;;;;;8.37;6.53;;;10.30;99.90;;;;;;5017360;28;20174;-84
2024/03/31 05:35:42;;;;;;;9.70;6.70;;;10.20;99.90;;;;;;5016165;28;20205;-84
2024/03/31 05:38:10;;;;;;;7.97;6.03;;;10.30;99.90;;;;;;5017035;28;20174;-84
2024/03/31 05:40:39;;;;;;;11.73;6.43;;;10.30;99.90;;;;;;5016733;28;20200;-84
2024/03/31 05:43:05;;;;;;;8.63;6.73;;;10.20;99.90;;;;;;5016128;28;20269;-84
2024/03/31 05:45:34;;;;;;;9.13;6.40;;;10.40;99.90;;;;;;5016612;28;20265;-85
2024/03/31 05:48:01;;;;;;;9.67;6.40;;;10.40;99.90;;;;;;5016622;28;20205;-83
2024/03/31 05:50:27;;;;;;;12.57;6.63;;;10.10;99.90;;;;;;5016099;28;20210;-85
2024/03/31 05:52:53;;;;;;;10.50;6.10;;;10.20;99.90;;;;;;5016571;28;20178;-84
2024/03/31 05:55:19;;;;;;;10.13;6.17;;;10.40;99.90;;;;;;5017102;28;20188;-83
2024/03/31 05:57:44;;;;;;;12.23;5.93;;;10.40;99.90;;;;;;5016101;28;20185;-85
2024/03/31 06:00:11;;;;;;;9.07;5.73;;;10.20;99.90;;;;;;5016921;28;20305;-84
2024/03/31 06:02:36;;;;;;;8.40;6.10;;;10.20;99.90;;;;;;5016756;28;20174;-85
2024/03/31 06:05:03;;;;;;;9.20;6.20;;;10.40;99.90;;;;;;5016509;28;20189;-84
2024/03/31 06:07:29;;;;;;;11.93;6.53;;;10.20;99.90;;;;;;5015933;28;20179;-83
2024/03/31 06:09:55;;;;;;;11.07;6.10;;;10.20;99.90;;;;;;5016847;28;20642;-84
2024/03/31 06:12:21;;;;;;;8.23;5.60;;;10.20;99.90;;;;;;5015434;28;20221;-85
2024/03/31 06:14:46;;;;;;;11.00;5.83;;;10.30;99.90;;;;;;5016075;28;20202;-84
2024/03/31 06:17:12;;;;;;;7.83;5.60;;;10.30;99.90;;;;;;5016420;28;20178;-85
2024/03/31 06:19:38;;;;;;;10.87;6.27;;;10.50;99.90;;;;;;5015127;28;20182;-83
2024/03/31 06:22:03;;;;;;;9.93;5.60;;;10.50;99.90;;;;;;5014975;28;20170;-84
2024/03/31 06:24:29;;;;;;;8.17;5.37;;;10.50;99.90;;;;;;5017423;28;20208;-84
2024/03/31 06:26:56;;;;;;;12.13;5.27;;;10.50;99.90;;;;;;5032416;28;20159;-83
2024/03/31 06:29:22;;;;;;;7.30;4.67;;;10.60;99.90;;;;;;5034208;28;20232;-84
2024/03/31 06:31:49;;;;;;;8.93;4.57;;;10.50;99.90;;;;;;5038005;28;20171;-84
2024/03/31 06:34:15;;;;;;;10.10;5.47;;;10.60;99.90;;;;;;5015462;28;20305;-83
2024/03/31 06:36:41;;;;;;;10.40;5.47;;;10.60;99.90;;;;;;5017701;28;20651;-83
2024/03/31 06:39:08;;;;;;;8.13;4.33;;;10.70;99.90;;;;;;5017681;28;20289;-84
2024/03/31 06:41:34;;;;;;;10.63;4.87;;;10.60;99.90;;;;;;5016450;28;20190;-84
2024/03/31 06:43:59;;;;;;;9.17;4.57;;;10.50;98.10;;;;;;5018058;28;20279;-85
2024/03/31 06:46:25;;;;;;;5.83;4.30;;;10.50;99.90;;;;;;5016594;28;20182;-84
2024/03/31 06:48:51;;;;;;;6.73;4.60;;;10.60;99.90;;;;;;5016156;28;20198;-84
2024/03/31 06:51:16;;;;;;;8.20;4.13;;;10.50;99.00;;;;;;5015776;28;20194;-84
2024/03/31 06:53:42;;;;;;;7.67;4.17;;;10.60;99.40;;;;;;5015664;28;20174;-84
2024/03/31 06:56:08;;;;;;;8.50;4.30;;;10.50;97.70;;;;;;5013306;28;20205;-85
2024/03/31 06:58:35;;;;;;;12.80;4.60;;;10.70;97.50;;;;;;5013743;28;20181;-84
2024/03/31 07:01:01;;;;;;;11.00;4.47;;;10.70;94.70;;;;;;5013843;28;20166;-83
2024/03/31 07:03:27;;;;;;;7.57;4.10;;;10.70;94.40;;;;;;5013641;28;20651;-83
2024/03/31 07:05:53;;;;;;;9.10;4.00;;;10.60;95.40;;;;;;5013930;28;20221;-84
2024/03/31 07:08:18;;;;;;;7.63;3.87;;;10.50;98.30;;;;;;5014529;28;20659;-84
2024/03/31 07:10:44;;;;;;;6.33;3.50;;;10.60;99.90;;;;;;5013885;28;20208;-83
2024/03/31 07:13:10;;;;;;;9.77;3.93;;;10.60;99.90;;;;;;5014231;28;20205;-84
2024/03/31 07:15:35;;;;;;;8.50;3.77;;;10.80;99.20;;;;;;5015228;28;20182;-83
2024/03/31 07:18:09;;;;;;;9.50;3.80;;;10.80;94.60;;;;;;5015420;28;20185;-85
2024/03/31 07:20:36;;;;;;;10.83;3.83;;;11.00;93.80;;;;;;5014595;28;20285;-83
2024/03/31 07:23:06;;;;;;;8.00;3.83;;;11.00;87.40;;;;;;5015204;28;20178;-85
2024/03/31 07:25:33;;;;;;;6.93;3.57;;;11.00;80.10;;;;;;5014697;28;20241;-84
2024/03/31 07:27:58;;;;;;;6.07;3.53;;;11.20;78.60;;;;;;5014288;28;20183;-84
2024/03/31 07:30:25;;;;;;;8.47;3.40;;;11.10;70.60;;;;;;5015109;28;20213;-84
2024/03/31 07:32:55;;;;;;;7.63;3.03;;;11.30;70.80;;;;;;5015156;28;20196;-85
2024/03/31 07:35:21;;;;;;;8.57;3.33;;;11.30;60.30;;;;;;5014392;28;20229;-85
2024/03/31 07:37:47;;;;;;;7.40;3.40;;;11.40;61.70;;;;;;5014498;28;20562;-85
2024/03/31 07:40:14;;;;;;;7.90;3.50;;;11.60;55.70;;;;;;5014526;28;20638;-85
2024/03/31 07:42:39;;;;;;;6.67;3.00;;;11.60;49.30;;;;;;5046971;28;20179;-84
2024/03/31 07:45:06;;;;;;;7.27;2.87;;;11.80;47.70;;;;;;5014334;28;20179;-85
2024/03/31 07:47:32;;;;;;;9.33;2.90;;;12.00;44.90;;;;;;5014611;28;20181;-85
2024/03/31 07:49:58;;;;;;;7.57;2.60;;;12.10;35.20;;;;;;5014031;28;20312;-84
2024/03/31 07:52:24;;;;;;;9.97;2.83;;;12.20;28.30;;;;;;5014194;28;20705;-85
2024/03/31 07:54:50;;;;;;;8.80;2.60;;;12.40;24.60;;;;;;5014578;28;20628;-84
2024/03/31 07:57:15;;;;;;;8.13;3.03;;;12.50;15.00;;;;;;5014073;28;20238;-84
2024/03/31 07:59:42;;;;;;;7.13;2.80;;;12.60;12.90;;;;;;5013524;28;20554;-85
2024/03/31 08:02:08;;;;;;;8.23;2.87;;;12.80;6.30;;;;;;5014162;28;20170;-84
2024/03/31 08:04:34;;;;;;;7.77;2.33;;;12.80;2.00;;;;;;5013221;28;20238;-85
2024/03/31 08:07:00;;;;;;;8.77;2.87;;;12.90;1.00;;;;;;5015375;28;20174;-84
2024/03/31 08:09:26;;;;;;;8.80;2.20;;;13.00;1.00;;;;;;5014620;28;20287;-83
2024/03/31 08:11:52;;;;;;;10.07;2.57;;;13.10;1.00;;;;;;5030249;28;20226;-85
2024/03/31 08:14:18;;;;;;;6.90;3.07;;;13.30;1.00;;;;;;5013639;28;20191;-84
2024/03/31 08:16:43;;;;;;;9.60;2.43;;;13.30;1.00;;;;;;5014449;28;20721;-85
2024/03/31 08:19:09;;;;;;;9.93;2.40;;;13.40;1.00;;;;;;5013315;28;20597;-84
2024/03/31 08:21:35;;;;;;;6.43;2.20;;;13.50;1.00;;;;;;5013914;28;20193;-85
2024/03/31 08:24:00;;;;;;;9.37;2.10;;;13.70;1.00;;;;;;5013125;28;20648;-85
2024/03/31 08:26:26;;;;;;;8.17;2.07;;;13.70;1.00;;;;;;5013591;28;20228;-85
2024/03/31 08:28:52;;;;;;;6.03;2.33;;;13.80;1.00;;;;;;5013592;28;20202;-84
2024/03/31 08:31:17;;;;;;;8.37;2.30;;;13.80;1.00;;;;;;5014321;28;20201;-85
2024/03/31 08:33:45;;;;;;;6.97;1.97;;;13.70;1.00;;;;;;5013481;28;20187;-85
2024/03/31 08:36:11;;;;;;;7.33;2.30;;;13.90;1.00;;;;;;5013658;28;20177;-85
2024/03/31 08:38:38;;;;;;;6.73;2.30;;;14.00;1.00;;;;;;5013250;28;20236;-84
2024/03/31 08:41:07;;;;;;;7.83;2.20;;;13.90;1.00;;;;;;5012992;28;20277;-84
2024/03/31 08:43:45;;;;;;;7.83;2.40;;;13.70;1.00;;;;;;5013161;28;20189;-85
2024/03/31 08:46:11;;;;;;;6.13;2.30;;;13.80;1.00;;;;;;5013013;28;20229;-85
2024/03/31 08:48:38;;;;;;;9.57;2.30;;;13.80;1.00;;;;;;5013120;28;20299;-86
2024/03/31 08:51:04;;;;;;;8.87;2.00;;;13.90;1.00;;;;;;5014928;28;20303;-86
2024/03/31 08:53:31;;;;;;;7.93;2.10;;;14.20;1.00;;;;;;5012517;28;20171;-85
2024/03/31 08:55:57;;;;;;;5.50;1.77;;;14.40;1.00;;;;;;5015408;28;20262;-83
2024/03/31 08:58:23;;;;;;;5.20;1.97;;;14.50;1.00;;;;;;5013715;28;20502;-84
2024/03/31 09:00:50;;;;;;;5.83;2.20;;;14.70;1.00;;;;;;5013066;28;20699;-85
2024/03/31 09:03:17;;;;;;;7.60;1.80;;;14.90;1.00;;;;;;5012839;28;20200;-83
2024/03/31 09:05:42;;;;;;;7.90;2.10;;;14.90;1.00;;;;;;5012893;28;20244;-85
2024/03/31 09:08:08;;;;;;;11.30;1.80;;;15.00;1.00;;;;;;5012795;28;20178;-84
2024/03/31 09:10:37;;;;;;;10.60;2.10;;;15.10;1.00;;;;;;5012826;28;20687;-85
2024/03/31 09:13:07;;;;;;;5.73;1.90;;;15.20;1.00;;;;;;5012006;28;20213;-85
2024/03/31 09:15:34;;;;;;;4.23;1.73;;;15.40;1.00;;;;;;5012344;28;20247;-83
2024/03/31 09:18:01;;;;;;;5.30;1.80;;;15.40;1.00;;;;;;5011918;28;20201;-84
2024/03/31 09:20:27;;;;;;;8.33;2.00;;;15.60;1.00;;;;;;5011741;28;20171;-84
2024/03/31 09:22:54;;;;;;;6.40;1.90;;;15.70;1.00;;;;;;5012181;28;20709;-84
2024/03/31 09:25:20;;;;;;;5.40;1.63;;;15.80;1.00;;;;;;5023777;28;20181;-85
2024/03/31 09:27:47;;;;;;;6.13;1.70;;;16.00;1.00;;;;;;5031798;28;20190;-84
2024/03/31 09:30:13;;;;;;;8.97;2.00;;;15.80;1.00;;;;;;5029843;28;20211;-83
2024/03/31 09:32:38;;;;;;;7.90;1.90;;;15.80;1.00;;;;;;5025781;28;20182;-86
2024/03/31 09:35:04;;;;;;;5.93;1.70;;;15.90;1.00;;;;;;5016598;28;20559;-84
2024/03/31 09:37:31;;;;;;;7.20;1.60;;;15.90;1.00;;;;;;5017440;28;20183;-85
2024/03/31 09:39:58;;;;;;;8.13;1.80;;;16.10;1.00;;;;;;5016276;28;20757;-85
2024/03/31 09:42:25;;;;;;;7.10;2.20;;;16.20;1.00;;;;;;5017584;28;20181;-85
2024/03/31 09:44:51;;;;;;;6.73;2.07;;;16.20;1.00;;;;;;5015700;28;20176;-84
2024/03/31 09:47:34;;;;;;;6.47;2.10;;;16.10;1.00;;;;;;5015978;28;20182;-85
2024/03/31 09:50:47;;;;;;;7.03;2.63;;;16.20;1.00;;;;;;5015826;28;20218;-87
2024/03/31 09:53:19;;;;;;;8.57;2.63;;;16.30;1.00;;;;;;5015498;28;20186;-85
2024/03/31 09:55:47;;;;;;;6.60;2.33;;;16.30;1.00;;;;;;5017323;28;20254;-85
2024/03/31 09:58:15;;;;;;;8.37;2.40;;;16.20;1.00;;;;;;5016851;28;20174;-84
2024/03/31 10:00:43;;;;;;;5.60;2.07;;;16.30;1.00;;;;;;5015895;28;20176;-84
2024/03/31 10:03:28;;;;;;;6.23;2.47;;;16.20;1.00;;;;;;5016198;28;20215;-85
2024/03/31 10:05:55;;;;;;;7.30;2.07;;;16.00;1.00;;;;;;5016307;28;20171;-85
2024/03/31 10:08:22;;;;;;;6.57;1.80;;;16.10;1.00;;;;;;5016122;28;20658;-84
2024/03/31 10:10:49;;;;;;;4.37;1.37;;;16.00;1.00;;;;;;5015982;28;20179;-85
2024/03/31 10:13:16;;;;;;;8.47;2.07;;;16.00;1.00;;;;;;5015227;28;20230;-84
2024/03/31 10:15:42;;;;;;;5.73;1.47;;;15.90;1.00;;;;;;5014208;28;20178;-86
2024/03/31 10:18:09;;;;;;;5.40;2.00;;;16.00;1.00;;;;;;5014601;28;20206;-86
2024/03/31 10:20:35;;;;;;;8.10;1.80;;;15.90;1.00;;;;;;5014215;28;20218;-85
2024/03/31 10:23:01;;;;;;;7.13;1.83;;;16.00;1.00;;;;;;5014311;28;20174;-85
2024/03/31 10:25:31;;;;;;;7.93;1.73;;;16.20;1.00;;;;;;5015850;28;20232;-85
2024/03/31 10:27:58;;;;;;;4.30;1.60;;;16.10;1.00;;;;;;5014599;28;20179;-85
2024/03/31 10:30:26;;;;;;;5.43;1.50;;;15.90;1.00;;;;;;5014951;28;20211;-86
2024/03/31 10:32:54;;;;;;;5.47;1.70;;;16.00;1.00;;;;;;5014950;28;20269;-86
2024/03/31 10:35:21;;;;;;;7.00;1.40;;;15.90;1.00;;;;;;5014856;28;20210;-85
2024/03/31 10:37:48;;;;;;;5.13;1.47;;;16.00;1.00;;;;;;5017389;28;20160;-84
2024/03/31 10:40:15;;;;;;;5.77;1.30;;;16.10;1.00;;;;;;5015050;28;20174;-85
2024/03/31 10:42:44;;;;;;;4.63;1.33;;;16.00;1.00;;;;;;5014849;28;20194;-83
2024/03/31 10:45:12;;;;;;;4.67;1.20;;;15.90;1.00;;;;;;5015306;28;20175;-84
2024/03/31 10:47:38;;;;;;;4.10;1.30;;;15.80;1.00;;;;;;5014381;28;20178;-85
2024/03/31 10:50:05;;;;;;;3.90;1.13;;;15.80;1.00;;;;;;5014915;28;20219;-84
2024/03/31 10:52:36;;;;;;;3.93;1.20;;;15.90;1.00;;;;;;5014949;28;20174;-85
2024/03/31 10:55:05;;;;;;;2.93;1.13;;;15.80;1.00;;;;;;5014650;28;20273;-84
2024/03/31 10:57:40;;;;;;;4.57;1.43;;;15.70;1.00;;;;;;5014540;28;20329;-85
2024/03/31 11:00:07;;;;;;;4.80;1.33;;;15.80;1.00;;;;;;5014822;28;20205;-85
2024/03/31 11:02:34;;;;;;;2.50;1.10;;;15.80;1.00;;;;;;5014323;28;20591;-84
2024/03/31 11:05:05;;;;;;;3.80;1.43;;;15.70;1.00;;;;;;5014967;28;20170;-85
2024/03/31 11:07:35;;;;;;;3.03;1.10;;;15.80;1.00;;;;;;5014552;28;20227;-85
2024/03/31 11:10:03;;;;;;;2.30;1.00;;;15.90;1.00;;;;;;5013877;28;20215;-85
2024/03/31 11:12:29;;;;;;;3.27;1.00;;;15.90;1.00;;;;;;5046369;28;20205;-84
2024/03/31 11:14:56;;;;;;;3.47;1.20;;;15.80;1.00;;;;;;5047183;28;20206;-88
2024/03/31 11:17:24;;;;;;;4.33;1.10;;;15.90;1.00;;;;;;5013646;28;20170;-87
2024/03/31 11:19:55;;;;;;;4.50;1.37;;;15.90;1.00;;;;;;5014529;28;20168;-85
2024/03/31 11:22:21;;;;;;;3.77;1.20;;;15.90;1.00;;;;;;5014143;28;20265;-85
2024/03/31 11:24:48;;;;;;;2.20;0.90;;;15.80;1.00;;;;;;5014942;28;20155;-85
2024/03/31 11:27:14;;;;;;;3.33;1.00;;;15.70;1.00;;;;;;5014513;28;20186;-84
2024/03/31 11:29:41;;;;;;;2.67;1.17;;;15.50;1.00;;;;;;5015049;28;20214;-85
2024/03/31 11:32:07;;;;;;;3.23;1.20;;;15.30;1.00;;;;;;5014016;28;20795;-83
2024/03/31 11:34:34;;;;;;;3.40;1.00;;;15.30;1.00;;;;;;5015699;28;20257;-85
2024/03/31 11:37:05;;;;;;;1.50;0.90;;;15.20;1.00;;;;;;5014026;28;20174;-86
2024/03/31 11:39:34;;;;;;;4.27;1.07;;;15.20;1.00;;;;;;5014229;28;20187;-86
2024/03/31 11:42:00;;;;;;;3.30;0.73;;;15.20;1.00;;;;;;5013796;28;20232;-86
2024/03/31 11:44:27;;;;;;;1.20;0.60;;;15.00;1.00;;;;;;5013845;28;20197;-85
2024/03/31 11:46:53;;;;;;;3.03;0.90;;;14.90;1.00;;;;;;5014233;28;20593;-85
2024/03/31 11:49:19;;;;;;;3.07;0.90;;;14.80;1.00;;;;;;5013965;28;20276;-85
2024/03/31 11:51:45;;;;;;;2.53;0.90;;;14.90;1.00;;;;;;5013986;28;20233;-85
2024/03/31 11:54:11;;;;;;;2.50;0.80;;;14.90;1.00;;;;;;5013503;28;20241;-84
2024/03/31 11:56:37;;;;;;;2.83;0.90;;;14.80;1.00;;;;;;5013548;28;20224;-85
2024/03/31 11:59:13;;;;;;;2.40;1.17;;;14.80;1.00;;;;;;5013191;28;20173;-85
2024/03/31 12:01:39;;;;;;;3.40;1.13;;;14.70;1.00;;;;;;5013297;28;20182;-86
2024/03/31 12:04:04;;;;;;;4.10;1.10;;;14.70;1.00;;;;;;5013818;28;20280;-87
2024/03/31 12:06:30;;;;;;;2.67;1.20;;;14.60;1.00;;;;;;5013200;28;20316;-87
2024/03/31 12:08:56;;;;;;;2.23;1.20;;;14.60;1.00;;;;;;5013334;28;20697;-85
2024/03/31 12:11:22;;;;;;;2.87;1.47;;;14.60;1.00;;;;;;5014179;28;20198;-86
2024/03/31 12:13:51;;;;;;;2.10;1.00;;;14.50;1.00;;;;;;5013886;28;20192;-87
2024/03/31 12:16:18;;;;;;;2.87;1.17;;;14.50;1.00;;;;;;5014118;28;20212;-84
2024/03/31 12:18:44;;;;;;;2.57;1.70;;;14.50;1.00;;;;;;5013524;28;20672;-85
2024/03/31 12:21:17;;;;;;;3.60;1.50;;;14.50;1.00;;;;;;5013989;28;20194;-86
2024/03/31 12:23:43;;;;;;;2.73;1.57;;;14.60;1.00;;;;;;5013192;28;20515;-85
2024/03/31 12:26:09;;;;;;;2.30;1.30;;;14.70;1.00;;;;;;5014015;28;20170;-86
2024/03/31 12:28:35;;;;;;;2.57;1.13;;;14.50;1.00;;;;;;5014928;28;20177;-85
2024/03/31 12:31:00;;;;;;;2.03;1.17;;;14.50;1.00;;;;;;5012834;28;20277;-85
2024/03/31 12:33:26;;;;;;;3.50;1.67;;;14.60;1.00;;;;;;5013507;28;20174;-84
2024/03/31 12:35:57;;;;;;;4.40;1.97;;;14.60;1.00;;;;;;5017462;28;20169;-85
2024/03/31 12:38:23;;;;;;;4.20;1.70;;;14.60;1.00;;;;;;5018497;28;20608;-84
2024/03/31 12:40:53;;;;;;;4.27;2.10;;;14.60;1.00;;;;;;5025724;28;20162;-85
2024/03/31 12:43:23;;;;;;;3.80;2.17;;;14.50;1.00;;;;;;5029667;28;20178;-85
2024/03/31 12:45:53;;;;;;;5.90;2.27;;;14.50;1.00;;;;;;5015895;28;20178;-85